createdAt,value
2023-02-08T00:01:27.434Z,99.90
2023-02-08T00:03:56.056Z,99.90
2023-02-08T00:06:24.800Z,99.90
2023-02-08T00:08:53.239Z,99.90
2023-02-08T00:11:21.839Z,99.90
2023-02-08T00:13:50.485Z,99.90
2023-02-08T00:16:19.654Z,99.90
2023-02-08T00:18:49.510Z,99.90
2023-02-08T00:21:19.479Z,99.90
2023-02-08T00:23:48.150Z,99.90
2023-02-08T00:26:17.249Z,99.90
2023-02-08T00:28:46.196Z,99.90
2023-02-08T00:31:14.989Z,99.90
2023-02-08T00:33:43.561Z,99.90
2023-02-08T00:36:14.051Z,99.90
2023-02-08T00:38:43.343Z,99.90
2023-02-08T00:41:11.915Z,99.90
2023-02-08T00:43:40.849Z,99.90
2023-02-08T00:46:11.133Z,99.90
2023-02-08T00:48:39.582Z,99.90
2023-02-08T00:51:15.371Z,99.90
2023-02-08T00:53:46.958Z,99.90
2023-02-08T00:56:17.093Z,99.90
2023-02-08T00:58:45.991Z,99.90
2023-02-08T01:01:14.988Z,99.90
2023-02-08T01:03:44.729Z,99.90
2023-02-08T01:06:15.656Z,99.90
2023-02-08T01:08:45.655Z,99.90
2023-02-08T01:11:17.686Z,99.90
2023-02-08T01:13:46.836Z,99.90
2023-02-08T01:16:17.300Z,99.90
2023-02-08T01:18:48.595Z,99.90
2023-02-08T01:21:19.160Z,99.90
2023-02-08T01:23:49.368Z,99.90
2023-02-08T01:26:19.018Z,99.90
2023-02-08T01:28:48.231Z,99.90
2023-02-08T01:31:19.473Z,99.90
2023-02-08T01:33:48.367Z,99.90
2023-02-08T01:36:17.569Z,99.90
2023-02-08T01:38:48.380Z,99.90
2023-02-08T01:41:20.169Z,99.90
2023-02-08T01:44:03.913Z,99.90
2023-02-08T01:46:34.347Z,99.90
2023-02-08T01:49:05.976Z,99.90
2023-02-08T01:51:37.134Z,99.90
2023-02-08T01:54:10.758Z,99.90
2023-02-08T01:56:42.817Z,99.90
2023-02-08T01:59:20.659Z,99.90
2023-02-08T02:01:52.451Z,99.90
2023-02-08T02:04:23.092Z,99.90
2023-02-08T02:06:56.751Z,99.90
2023-02-08T02:09:30.530Z,99.90
2023-02-08T02:12:02.245Z,99.90
2023-02-08T02:14:30.938Z,99.90
2023-02-08T02:17:01.411Z,99.90
2023-02-08T02:19:38.615Z,99.90
2023-02-08T02:22:24.043Z,99.90
2023-02-08T02:25:15.178Z,99.90
2023-02-08T02:28:02.705Z,99.90
2023-02-08T02:31:11.643Z,99.90
2023-02-08T02:33:53.725Z,99.90
2023-02-08T02:36:33.278Z,99.90
2023-02-08T02:39:14.917Z,99.90
2023-02-08T02:42:13.594Z,99.90
2023-02-08T02:44:51.136Z,99.90
2023-02-08T02:47:24.799Z,99.90
2023-02-08T02:49:58.258Z,99.90
2023-02-08T02:52:33.660Z,99.90
2023-02-08T02:55:08.813Z,99.90
2023-02-08T02:57:38.756Z,99.90
2023-02-08T03:00:09.822Z,99.90
2023-02-08T03:02:38.607Z,99.90
2023-02-08T03:05:12.364Z,99.90
2023-02-08T03:08:02.157Z,99.90
2023-02-08T03:10:51.755Z,99.90
2023-02-08T03:13:27.982Z,99.90
2023-02-08T03:16:07.421Z,99.90
2023-02-08T03:18:42.788Z,99.90
2023-02-08T03:21:19.670Z,99.90
2023-02-08T03:23:58.291Z,99.90
2023-02-08T03:26:36.221Z,99.90
2023-02-08T03:29:10.990Z,99.90
2023-02-08T03:31:44.338Z,99.90
2023-02-08T03:34:17.669Z,99.90
2023-02-08T03:36:51.662Z,99.90
2023-02-08T03:39:24.984Z,99.90
2023-02-08T03:41:57.930Z,99.90
2023-02-08T03:44:29.548Z,99.90
2023-02-08T03:47:02.788Z,99.90
2023-02-08T03:49:34.430Z,99.90
2023-02-08T03:52:08.139Z,99.90
2023-02-08T03:54:41.073Z,99.90
2023-02-08T03:57:13.911Z,99.90
2023-02-08T03:59:46.538Z,99.90
2023-02-08T04:02:20.324Z,99.90
2023-02-08T04:04:51.376Z,99.90
2023-02-08T04:07:21.738Z,99.90
2023-02-08T04:09:52.098Z,99.90
2023-02-08T04:12:21.268Z,99.90
2023-02-08T04:14:49.670Z,99.90
2023-02-08T04:17:18.195Z,99.90
2023-02-08T04:19:46.755Z,99.90
2023-02-08T04:22:15.260Z,99.90
2023-02-08T04:24:45.043Z,99.90
2023-02-08T04:27:13.605Z,99.90
2023-02-08T04:29:42.138Z,99.90
2023-02-08T04:32:11.940Z,99.90
2023-02-08T04:34:40.938Z,99.90
2023-02-08T04:37:11.098Z,99.90
2023-02-08T04:39:39.568Z,99.90
2023-02-08T04:42:09.950Z,99.90
2023-02-08T04:44:38.384Z,99.90
2023-02-08T04:47:07.032Z,99.90
2023-02-08T04:49:35.696Z,99.90
2023-02-08T04:52:04.281Z,99.90
2023-02-08T04:54:32.734Z,99.90
2023-02-08T04:57:01.302Z,99.90
2023-02-08T04:59:31.149Z,99.90
2023-02-08T05:02:00.515Z,99.90
2023-02-08T05:04:29.075Z,99.90
2023-02-08T05:06:57.567Z,99.90
2023-02-08T05:09:26.278Z,99.90
2023-02-08T05:11:54.856Z,99.90
2023-02-08T05:14:23.249Z,99.90
2023-02-08T05:16:53.146Z,99.90
2023-02-08T05:19:21.675Z,99.90
2023-02-08T05:21:50.147Z,99.90
2023-02-08T05:24:18.687Z,99.90
2023-02-08T05:26:47.122Z,99.90
2023-02-08T05:29:15.682Z,99.90
2023-02-08T05:31:44.198Z,99.90
2023-02-08T05:34:14.210Z,99.90
2023-02-08T05:36:42.869Z,99.90
2023-02-08T05:39:11.478Z,99.90
2023-02-08T05:41:40.014Z,99.90
2023-02-08T05:44:08.520Z,99.90
2023-02-08T05:46:38.323Z,99.90
2023-02-08T05:49:07.081Z,99.90
2023-02-08T05:51:36.831Z,99.90
2023-02-08T05:54:05.506Z,99.90
2023-02-08T05:56:34.810Z,99.90
2023-02-08T05:59:03.908Z,99.90
2023-02-08T06:01:32.474Z,99.90
2023-02-08T06:04:01.346Z,99.90
2023-02-08T06:06:29.884Z,99.90
2023-02-08T06:08:59.786Z,99.90
2023-02-08T06:11:28.298Z,99.90
2023-02-08T06:13:56.925Z,99.90
2023-02-08T06:16:25.400Z,99.90
2023-02-08T06:18:53.934Z,99.90
2023-02-08T06:21:24.402Z,99.90
2023-02-08T06:23:53.198Z,99.90
2023-02-08T06:26:22.969Z,99.90
2023-02-08T06:28:51.533Z,99.90
2023-02-08T06:31:20.005Z,99.90
2023-02-08T06:33:48.573Z,99.90
2023-02-08T06:36:17.129Z,99.90
2023-02-08T06:38:45.599Z,99.90
2023-02-08T06:41:14.193Z,99.90
2023-02-08T06:43:44.415Z,99.90
2023-02-08T06:46:13.418Z,99.90
2023-02-08T06:48:41.888Z,99.90
2023-02-08T06:51:10.489Z,99.90
2023-02-08T06:53:38.953Z,99.90
2023-02-08T06:56:07.948Z,99.90
2023-02-08T06:58:36.352Z,99.90
2023-02-08T07:01:06.575Z,99.90
2023-02-08T07:03:35.139Z,99.90
2023-02-08T07:06:05.183Z,99.90
2023-02-08T07:08:34.912Z,99.90
2023-02-08T07:11:22.639Z,99.90
2023-02-08T07:13:52.627Z,99.90
2023-02-08T07:16:22.860Z,99.90
2023-02-08T07:18:51.353Z,99.90
2023-02-08T07:21:19.849Z,99.90
2023-02-08T07:23:48.293Z,99.90
2023-02-08T07:26:17.282Z,99.90
2023-02-08T07:28:45.728Z,99.90
2023-02-08T07:31:16.361Z,99.90
2023-02-08T07:33:46.255Z,99.90
2023-02-08T07:36:14.759Z,99.90
2023-02-08T07:38:43.244Z,99.90
2023-02-08T07:41:14.394Z,99.90
2023-02-08T07:43:43.035Z,99.90
2023-02-08T07:46:13.956Z,99.90
2023-02-08T07:48:42.389Z,99.90
2023-02-08T07:51:13.621Z,99.90
2023-02-08T07:53:42.173Z,99.90
2023-02-08T07:56:10.978Z,99.90
2023-02-08T07:58:39.500Z,99.90
2023-02-08T08:01:23.600Z,99.90
2023-02-08T08:03:52.816Z,99.90
2023-02-08T08:06:24.039Z,99.90
2023-02-08T08:08:52.624Z,99.90
2023-02-08T08:11:22.208Z,98.90
2023-02-08T08:13:50.975Z,95.50
2023-02-08T08:16:21.517Z,94.00
2023-02-08T08:18:50.885Z,94.90
2023-02-08T08:21:19.438Z,94.50
2023-02-08T08:23:49.315Z,96.70
2023-02-08T08:26:19.884Z,99.00
2023-02-08T08:28:49.032Z,98.80
2023-02-08T08:31:20.110Z,98.80
2023-02-08T08:33:49.134Z,99.90
2023-02-08T08:36:17.954Z,99.90
2023-02-08T08:38:46.406Z,99.90
2023-02-08T08:41:18.841Z,99.90
2023-02-08T08:43:47.370Z,99.90
2023-02-08T08:46:16.904Z,99.90
2023-02-08T08:48:46.850Z,99.90
2023-02-08T08:51:15.690Z,99.90
2023-02-08T08:53:44.384Z,99.90
2023-02-08T08:56:13.162Z,99.90
2023-02-08T08:58:43.675Z,99.90
2023-02-08T09:01:14.095Z,99.90
2023-02-08T09:03:42.654Z,99.90
2023-02-08T09:06:11.316Z,99.90
2023-02-08T09:08:39.955Z,99.90
2023-02-08T09:11:10.236Z,99.90
2023-02-08T09:13:39.248Z,99.90
2023-02-08T09:16:11.412Z,99.90
2023-02-08T09:18:39.952Z,99.90
2023-02-08T09:21:09.350Z,99.90
2023-02-08T09:23:38.316Z,99.90
2023-02-08T09:26:08.787Z,99.90
2023-02-08T09:28:37.528Z,99.90
2023-02-08T09:31:11.429Z,99.90
2023-02-08T09:33:40.520Z,99.90
2023-02-08T09:36:09.823Z,99.90
2023-02-08T09:38:38.922Z,99.90
2023-02-08T09:41:22.137Z,99.90
2023-02-08T09:44:00.360Z,99.90
2023-02-08T09:46:33.513Z,99.90
2023-02-08T09:49:06.461Z,99.90
2023-02-08T09:51:39.282Z,99.90
2023-02-08T09:54:15.675Z,99.90
2023-02-08T09:56:45.963Z,99.90
2023-02-08T09:59:17.663Z,99.90
2023-02-08T10:01:49.440Z,99.90
2023-02-08T10:04:27.246Z,99.90
2023-02-08T10:06:55.892Z,99.90
2023-02-08T10:09:27.884Z,99.90
2023-02-08T10:12:08.038Z,99.90
2023-02-08T10:14:50.352Z,99.90
2023-02-08T10:17:50.974Z,99.90
2023-02-08T10:20:34.162Z,99.90
2023-02-08T10:23:24.650Z,99.90
2023-02-08T10:26:15.132Z,99.90
2023-02-08T10:29:02.623Z,99.90
2023-02-08T10:31:43.676Z,99.90
2023-02-08T10:34:24.829Z,99.90
2023-02-08T10:36:54.736Z,99.90
2023-02-08T10:39:28.733Z,99.90
2023-02-08T10:41:58.515Z,99.90
2023-02-08T10:44:36.087Z,99.90
2023-02-08T10:47:14.469Z,99.90
2023-02-08T10:49:50.244Z,99.90
2023-02-08T10:52:19.122Z,99.90
2023-02-08T10:54:48.241Z,99.90
2023-02-08T10:57:19.832Z,99.90
2023-02-08T10:59:50.891Z,99.90
2023-02-08T11:02:26.505Z,99.90
2023-02-08T11:05:04.982Z,99.90
2023-02-08T11:07:36.433Z,99.90
2023-02-08T11:10:27.112Z,99.90
2023-02-08T11:12:57.892Z,99.90
2023-02-08T11:15:28.921Z,99.90
2023-02-08T11:18:01.231Z,99.90
2023-02-08T11:20:36.779Z,99.90
2023-02-08T11:23:06.713Z,99.90
2023-02-08T11:25:39.211Z,99.90
2023-02-08T11:28:24.715Z,99.90
2023-02-08T11:31:02.888Z,99.90
2023-02-08T11:33:32.656Z,99.90
2023-02-08T11:36:06.832Z,99.90
2023-02-08T11:38:37.862Z,99.90
2023-02-08T11:41:16.796Z,99.90
2023-02-08T11:43:52.274Z,99.90
2023-02-08T11:46:24.749Z,99.90
2023-02-08T11:48:55.495Z,99.90
2023-02-08T11:51:32.321Z,99.90
2023-02-08T11:54:01.658Z,99.90
2023-02-08T11:56:32.301Z,99.90
2023-02-08T11:59:03.938Z,99.90
2023-02-08T12:01:33.945Z,99.90
2023-02-08T12:04:05.651Z,99.90
2023-02-08T12:07:09.972Z,99.90
2023-02-08T12:10:20.705Z,99.90
2023-02-08T12:13:05.121Z,99.90
2023-02-08T12:15:57.450Z,99.90
2023-02-08T12:18:45.144Z,99.90
2023-02-08T12:21:19.134Z,99.90
2023-02-08T12:23:51.526Z,99.90
2023-02-08T12:26:32.142Z,99.90
2023-02-08T12:29:41.898Z,99.90
2023-02-08T12:32:33.774Z,99.90
2023-02-08T12:36:01.539Z,99.90
2023-02-08T12:38:52.288Z,99.90
2023-02-08T12:41:30.465Z,99.90
2023-02-08T12:44:08.774Z,99.90
2023-02-08T12:46:52.669Z,99.90
2023-02-08T12:49:52.034Z,99.90
2023-02-08T12:52:32.420Z,99.90
2023-02-08T12:55:06.726Z,99.90
2023-02-08T12:57:37.296Z,99.90
2023-02-08T13:00:08.777Z,99.90
2023-02-08T13:02:44.968Z,99.90
2023-02-08T13:05:18.929Z,99.90
2023-02-08T13:07:50.477Z,99.90
2023-02-08T13:10:26.950Z,99.90
2023-02-08T13:13:00.830Z,99.90
2023-02-08T13:15:38.455Z,99.90
2023-02-08T13:18:15.706Z,99.90
2023-02-08T13:20:47.951Z,99.90
2023-02-08T13:23:24.295Z,99.90
2023-02-08T13:25:56.941Z,99.90
2023-02-08T13:28:28.363Z,99.90
2023-02-08T13:31:01.219Z,99.90
2023-02-08T13:33:36.043Z,99.90
2023-02-08T13:36:05.256Z,99.90
2023-02-08T13:38:36.634Z,99.90
2023-02-08T13:41:09.374Z,99.90
2023-02-08T13:43:43.664Z,99.90
2023-02-08T13:46:13.187Z,99.90
2023-02-08T13:48:47.880Z,99.90
2023-02-08T13:51:56.051Z,99.90
2023-02-08T13:54:25.814Z,99.90
2023-02-08T13:56:54.902Z,99.90
2023-02-08T13:59:35.253Z,99.90
2023-02-08T14:02:37.213Z,99.90
2023-02-08T14:05:43.819Z,99.90
2023-02-08T14:08:23.810Z,99.90
2023-02-08T14:11:04.823Z,99.90
2023-02-08T14:13:36.262Z,99.90
2023-02-08T14:16:27.867Z,99.90
2023-02-08T14:18:58.798Z,99.90
2023-02-08T14:21:45.148Z,99.90
2023-02-08T14:24:23.256Z,99.90
2023-02-08T14:26:52.486Z,99.90
2023-02-08T14:29:27.196Z,99.90
2023-02-08T14:31:58.489Z,99.90
2023-02-08T14:34:35.028Z,99.90
2023-02-08T14:37:07.460Z,99.90
2023-02-08T14:39:38.725Z,99.90
2023-02-08T14:42:10.731Z,99.90
2023-02-08T14:45:01.304Z,99.90
2023-02-08T14:48:17.676Z,99.90
2023-02-08T14:50:56.447Z,99.90
2023-02-08T14:53:41.508Z,99.90
2023-02-08T14:56:18.413Z,99.90
2023-02-08T14:58:50.892Z,99.90
2023-02-08T15:01:22.002Z,99.90
2023-02-08T15:03:55.925Z,99.90
2023-02-08T15:07:04.221Z,99.90
2023-02-08T15:09:37.033Z,99.90
2023-02-08T15:12:09.088Z,99.90
2023-02-08T15:14:41.170Z,99.90
2023-02-08T15:17:22.355Z,99.90
2023-02-08T15:19:52.969Z,99.90
2023-02-08T15:22:33.461Z,99.90
2023-02-08T15:25:12.582Z,99.90
2023-02-08T15:27:48.863Z,99.90
2023-02-08T15:30:28.697Z,99.90
2023-02-08T15:32:57.778Z,99.90
2023-02-08T15:35:28.541Z,99.90
2023-02-08T15:37:58.537Z,99.90
2023-02-08T15:40:30.113Z,99.90
2023-02-08T15:43:05.190Z,99.90
2023-02-08T15:45:33.831Z,99.90
2023-02-08T15:48:03.622Z,99.90
2023-02-08T15:50:34.471Z,99.90
2023-02-08T15:53:04.948Z,99.90
2023-02-08T15:55:37.590Z,99.90
2023-02-08T15:58:09.687Z,99.90
2023-02-08T16:00:39.356Z,99.90
2023-02-08T16:03:17.129Z,99.90
2023-02-08T16:05:54.125Z,99.90
2023-02-08T16:08:26.691Z,99.90
2023-02-08T16:10:59.313Z,99.90
2023-02-08T16:13:31.586Z,99.90
2023-02-08T16:16:17.879Z,99.90
2023-02-08T16:18:49.983Z,99.90
2023-02-08T16:21:32.238Z,99.90
2023-02-08T16:24:02.379Z,99.90
2023-02-08T16:26:35.731Z,99.90
2023-02-08T16:29:06.290Z,99.90
2023-02-08T16:31:37.062Z,99.90
2023-02-08T16:34:08.461Z,99.90
2023-02-08T16:36:43.661Z,99.90
2023-02-08T16:39:39.972Z,99.90
2023-02-08T16:42:22.506Z,99.90
2023-02-08T16:45:15.873Z,99.90
2023-02-08T16:47:47.183Z,99.90
2023-02-08T16:50:18.012Z,99.90
2023-02-08T16:52:50.508Z,99.90
2023-02-08T16:55:22.455Z,99.90
2023-02-08T16:57:52.576Z,99.90
2023-02-08T17:00:24.873Z,99.90
2023-02-08T17:02:53.880Z,99.90
2023-02-08T17:05:23.993Z,99.90
2023-02-08T17:07:54.322Z,99.90
2023-02-08T17:10:28.748Z,99.90
2023-02-08T17:13:13.248Z,99.90
2023-02-08T17:15:47.217Z,99.90
2023-02-08T17:18:16.201Z,99.90
2023-02-08T17:20:45.064Z,99.90
2023-02-08T17:23:16.569Z,99.90
2023-02-08T17:25:45.756Z,99.90
2023-02-08T17:28:18.537Z,99.90
2023-02-08T17:30:48.228Z,99.90
2023-02-08T17:33:19.003Z,99.90
2023-02-08T17:35:49.516Z,99.90
2023-02-08T17:38:20.927Z,99.90
2023-02-08T17:40:50.158Z,99.90
2023-02-08T17:43:19.022Z,99.90
2023-02-08T17:45:48.184Z,99.90
2023-02-08T17:48:17.113Z,99.90
2023-02-08T17:50:50.939Z,99.90
2023-02-08T17:53:20.820Z,99.90
2023-02-08T17:55:49.615Z,99.90
2023-02-08T17:58:18.407Z,99.90
2023-02-08T18:00:50.253Z,99.90
2023-02-08T18:03:21.309Z,99.90
2023-02-08T18:05:57.873Z,99.90
2023-02-08T18:08:28.264Z,99.90
2023-02-08T18:10:56.814Z,99.90
2023-02-08T18:13:25.252Z,99.90
2023-02-08T18:15:53.951Z,99.90
2023-02-08T18:18:22.413Z,99.90
2023-02-08T18:20:50.987Z,99.90
2023-02-08T18:23:19.557Z,99.90
2023-02-08T18:25:49.539Z,99.90
2023-02-08T18:28:18.198Z,99.90
2023-02-08T18:30:46.908Z,99.90
2023-02-08T18:33:15.385Z,99.90
2023-02-08T18:35:49.893Z,99.90
2023-02-08T18:38:18.551Z,99.90
2023-02-08T18:40:47.262Z,99.90
2023-02-08T18:43:18.894Z,99.90
2023-02-08T18:45:49.391Z,99.90
2023-02-08T18:48:18.946Z,99.90
2023-02-08T18:50:54.809Z,99.90
2023-02-08T18:53:23.883Z,99.90
2023-02-08T18:55:55.977Z,99.90
2023-02-08T18:58:26.224Z,99.90
2023-02-08T19:00:55.171Z,99.90
2023-02-08T19:03:24.229Z,99.90
2023-02-08T19:05:52.645Z,99.90
2023-02-08T19:08:22.694Z,99.90
2023-02-08T19:11:08.571Z,99.90
2023-02-08T19:13:38.521Z,99.90
2023-02-08T19:16:07.713Z,99.90
2023-02-08T19:18:36.315Z,99.90
2023-02-08T19:21:06.563Z,99.90
2023-02-08T19:23:35.257Z,99.90
2023-02-08T19:26:05.150Z,99.90
2023-02-08T19:28:34.767Z,99.90
2023-02-08T19:31:09.848Z,99.90
2023-02-08T19:33:41.180Z,99.90
2023-02-08T19:36:10.642Z,99.90
2023-02-08T19:38:39.719Z,99.90
2023-02-08T19:41:10.139Z,99.90
2023-02-08T19:43:38.677Z,99.90
2023-02-08T19:46:14.700Z,99.90
2023-02-08T19:48:43.390Z,99.90
2023-02-08T19:51:12.238Z,99.90
2023-02-08T19:53:40.767Z,99.90
2023-02-08T19:56:12.771Z,99.90
2023-02-08T19:58:42.375Z,99.90
2023-02-08T20:01:15.987Z,99.90
2023-02-08T20:03:45.136Z,99.90
2023-02-08T20:06:18.954Z,99.90
2023-02-08T20:08:49.200Z,99.90
2023-02-08T20:11:19.354Z,99.90
2023-02-08T20:13:48.559Z,99.90
2023-02-08T20:16:18.515Z,99.90
2023-02-08T20:18:47.390Z,99.90
2023-02-08T20:21:16.427Z,99.90
2023-02-08T20:23:45.209Z,99.90
2023-02-08T20:26:16.194Z,99.90
2023-02-08T20:28:47.223Z,99.90
2023-02-08T20:31:19.464Z,99.90
2023-02-08T20:33:48.707Z,99.90
2023-02-08T20:36:21.751Z,99.90
2023-02-08T20:38:52.746Z,99.90
2023-02-08T20:41:22.186Z,99.90
2023-02-08T20:43:51.516Z,99.90
2023-02-08T20:46:23.508Z,99.90
2023-02-08T20:48:53.231Z,99.90
2023-02-08T20:51:25.857Z,99.90
2023-02-08T20:53:55.215Z,99.90
2023-02-08T20:56:26.538Z,99.90
2023-02-08T20:58:55.449Z,99.90
2023-02-08T21:01:27.650Z,99.90
2023-02-08T21:03:57.294Z,99.90
2023-02-08T21:06:29.538Z,99.90
2023-02-08T21:08:59.386Z,99.90
2023-02-08T21:11:29.890Z,99.90
2023-02-08T21:13:59.454Z,99.90
2023-02-08T21:16:30.096Z,99.90
2023-02-08T21:18:59.354Z,99.90
2023-02-08T21:21:28.143Z,99.90
2023-02-08T21:23:58.064Z,99.90
2023-02-08T21:26:27.529Z,99.90
2023-02-08T21:28:58.834Z,99.90
2023-02-08T21:31:29.126Z,99.90
2023-02-08T21:33:57.731Z,99.90
2023-02-08T21:36:26.539Z,99.90
2023-02-08T21:38:55.011Z,99.90
2023-02-08T21:41:25.911Z,99.90
2023-02-08T21:43:56.225Z,99.90
2023-02-08T21:46:25.878Z,99.90
2023-02-08T21:49:14.500Z,99.90
2023-02-08T21:52:00.936Z,99.90
2023-02-08T21:54:44.395Z,99.90
2023-02-08T21:57:16.881Z,99.90
2023-02-08T21:59:46.008Z,99.90
2023-02-08T22:02:16.796Z,99.90
2023-02-08T22:05:04.222Z,99.90
2023-02-08T22:07:42.735Z,99.90
2023-02-08T22:10:11.941Z,99.90
2023-02-08T22:12:41.929Z,99.90
2023-02-08T22:15:12.705Z,99.90
2023-02-08T22:17:41.264Z,99.90
2023-02-08T22:20:13.652Z,99.90
2023-02-08T22:22:42.165Z,99.90
2023-02-08T22:25:10.832Z,99.90
2023-02-08T22:27:41.116Z,99.90
2023-02-08T22:30:11.611Z,99.90
2023-02-08T22:32:41.351Z,99.90
2023-02-08T22:35:12.079Z,99.90
2023-02-08T22:37:40.896Z,99.90
2023-02-08T22:40:10.650Z,99.90
2023-02-08T22:42:39.958Z,99.90
2023-02-08T22:45:09.327Z,99.90
2023-02-08T22:47:37.963Z,99.90
2023-02-08T22:50:07.716Z,99.90
2023-02-08T22:52:37.727Z,99.90
2023-02-08T22:55:06.963Z,99.90
2023-02-08T22:57:36.649Z,99.90
2023-02-08T23:00:06.900Z,99.90
2023-02-08T23:02:35.491Z,99.90
2023-02-08T23:05:03.989Z,99.90
2023-02-08T23:07:32.618Z,99.90
2023-02-08T23:10:02.443Z,99.90
2023-02-08T23:12:31.613Z,99.90
2023-02-08T23:15:00.040Z,99.90
2023-02-08T23:17:28.608Z,99.90
2023-02-08T23:19:57.019Z,99.90
2023-02-08T23:22:25.526Z,99.90
2023-02-08T23:24:55.399Z,99.90
2023-02-08T23:27:25.316Z,99.90
2023-02-08T23:29:53.755Z,99.90
2023-02-08T23:32:22.293Z,99.90
2023-02-08T23:34:50.888Z,99.90
2023-02-08T23:37:19.433Z,99.90
2023-02-08T23:39:48.002Z,99.90
2023-02-08T23:42:26.444Z,99.90
2023-02-08T23:44:57.498Z,99.90
2023-02-08T23:47:26.908Z,99.90
2023-02-08T23:49:55.907Z,99.90
2023-02-08T23:52:24.426Z,99.90
2023-02-08T23:54:52.994Z,99.90
2023-02-08T23:57:21.552Z,99.90
2023-02-08T23:59:50.241Z,99.90
